TimeEDT,TemperatureF,Dew PointF,Humidity,Sea Level PressureIn,VisibilityMPH,Wind Direction,Wind SpeedMPH,Gust SpeedMPH,PrecipitationIn,Events,Conditions,WindDirDegrees,DateUTC
12:21 AM,44.6,42.8,93,30.09,1.5,Calm,Calm,-,N/A,,Clear,0,2011-10-22 04:21:00
12:26 AM,44.6,42.8,93,30.09,3.0,Calm,Calm,-,N/A,,Clear,0,2011-10-22 04:26:00
12:29 AM,44.6,42.8,93,30.09,1.5,Calm,Calm,-,N/A,,Clear,0,2011-10-22 04:29:00
12:38 AM,44.6,42.8,93,30.09,0.5,Calm,Calm,-,N/A,Fog,Fog,0,2011-10-22 04:38:00
12:46 AM,44.6,42.8,93,30.09,0.8,Calm,Calm,-,N/A,,Mist,0,2011-10-22 04:46:00
12:53 AM,46.0,44.1,93,30.09,1.0,Calm,Calm,-,N/A,,Mist,0,2011-10-22 04:53:00
1:07 AM,46.4,44.6,93,30.08,1.8,Calm,Calm,-,N/A,,Partly Cloudy,0,2011-10-22 05:07:00
1:53 AM,44.1,43.0,96,30.09,5.0,Calm,Calm,-,N/A,,Overcast,0,2011-10-22 05:53:00
2:33 AM,46.4,44.6,93,30.08,1.5,Calm,Calm,-,N/A,,Mostly Cloudy,0,2011-10-22 06:33:00
2:43 AM,44.6,44.6,100,30.08,0.8,Calm,Calm,-,N/A,,Partly Cloudy,0,2011-10-22 06:43:00
2:51 AM,44.6,42.8,93,30.09,2.0,Calm,Calm,-,N/A,,Clear,0,2011-10-22 06:51:00
2:52 AM,44.1,43.0,96,30.09,2.0,Calm,Calm,-,N/A,,Clear,0,2011-10-22 06:52:00
3:01 AM,44.6,42.8,93,30.09,1.0,Calm,Calm,-,N/A,,Clear,0,2011-10-22 07:01:00
3:09 AM,44.6,42.8,93,30.08,0.5,Calm,Calm,-,N/A,Fog,Fog,0,2011-10-22 07:09:00
3:21 AM,44.6,42.8,93,30.08,2.5,Calm,Calm,-,N/A,,Clear,0,2011-10-22 07:21:00
3:28 AM,44.6,44.6,100,30.08,6.0,Calm,Calm,-,N/A,,Clear,0,2011-10-22 07:28:00
3:32 AM,44.6,42.8,93,30.09,1.8,Calm,Calm,-,N/A,,Clear,0,2011-10-22 07:32:00
3:53 AM,42.1,41.0,96,30.09,1.0,Calm,Calm,-,N/A,,Clear,0,2011-10-22 07:53:00
4:12 AM,42.8,42.8,100,30.09,3.0,Calm,Calm,-,N/A,,Clear,0,2011-10-22 08:12:00
4:53 AM,45.0,42.1,90,30.09,10.0,North,3.5,-,N/A,,Clear,350,2011-10-22 08:53:00
5:53 AM,43.0,41.0,93,30.11,9.0,North,3.5,-,0.01,,Clear,350,2011-10-22 09:53:00
6:53 AM,44.1,42.1,93,30.12,9.0,NNE,5.8,-,N/A,,Clear,30,2011-10-22 10:53:00
7:53 AM,44.1,42.1,93,30.14,8.0,NNE,4.6,-,N/A,,Clear,20,2011-10-22 11:53:00
8:53 AM,51.1,46.9,86,30.15,10.0,NNE,6.9,-,N/A,,Mostly Cloudy,20,2011-10-22 12:53:00
9:53 AM,54.0,48.0,80,30.16,10.0,NE,5.8,-,N/A,,Partly Cloudy,40,2011-10-22 13:53:00
10:53 AM,59.0,46.9,64,30.16,10.0,NE,6.9,-,N/A,,Scattered Clouds,40,2011-10-22 14:53:00
11:53 AM,63.0,48.0,58,30.14,10.0,Variable,4.6,-,N/A,,Clear,0,2011-10-22 15:53:00
12:53 PM,63.0,45.0,52,30.12,10.0,NNE,3.5,-,N/A,,Overcast,20,2011-10-22 16:53:00
1:53 PM,63.0,43.0,48,30.10,10.0,NNE,3.5,-,N/A,,Overcast,20,2011-10-22 17:53:00
2:53 PM,63.0,45.0,52,30.09,10.0,Calm,Calm,-,N/A,,Mostly Cloudy,0,2011-10-22 18:53:00
3:53 PM,64.9,45.0,48,30.08,10.0,NNW,5.8,-,N/A,,Mostly Cloudy,330,2011-10-22 19:53:00
4:53 PM,64.9,43.0,45,30.07,10.0,NW,3.5,-,N/A,,Scattered Clouds,310,2011-10-22 20:53:00
5:53 PM,62.1,48.0,60,30.08,10.0,Calm,Calm,-,N/A,,Partly Cloudy,0,2011-10-22 21:53:00
6:53 PM,54.0,48.0,80,30.09,10.0,Calm,Calm,-,N/A,,Clear,0,2011-10-22 22:53:00
7:53 PM,51.1,48.0,89,30.10,10.0,Calm,Calm,-,N/A,,Clear,0,2011-10-22 23:53:00
8:53 PM,50.0,46.9,89,30.11,10.0,Calm,Calm,-,N/A,,Clear,0,2011-10-23 00:53:00
9:53 PM,48.0,46.0,93,30.12,10.0,Calm,Calm,-,N/A,,Clear,0,2011-10-23 01:53:00
10:53 PM,46.0,44.1,93,30.12,9.0,Calm,Calm,-,N/A,,Clear,0,2011-10-23 02:53:00
11:32 PM,46.4,42.8,87,30.11,1.5,Calm,Calm,-,N/A,,Clear,0,2011-10-23 03:32:00
11:53 PM,45.0,43.0,93,30.12,1.5,Calm,Calm,-,N/A,,Clear,0,2011-10-23 03:53:00
11:59 PM,44.6,42.8,93,30.11,3.0,Calm,Calm,-,N/A,,Clear,0,2011-10-23 03:59:00